createdAt,value
2018-03-15T00:00:02.622Z,971.6
2018-03-15T00:01:05.144Z,971.7
2018-03-15T00:02:07.934Z,971.6
2018-03-15T00:03:10.515Z,971.6
2018-03-15T00:04:13.038Z,971.4
2018-03-15T00:05:15.517Z,971.6
2018-03-15T00:06:17.993Z,971.7
2018-03-15T00:07:20.578Z,971.7
2018-03-15T00:08:23.012Z,971.6
2018-03-15T00:09:25.494Z,971.6
2018-03-15T00:10:28.009Z,971.6
2018-03-15T00:11:30.540Z,971.4
2018-03-15T00:12:33.169Z,971.5
2018-03-15T00:13:35.646Z,971.5
2018-03-15T00:14:38.101Z,971.5
2018-03-15T00:15:40.669Z,971.4
2018-03-15T00:16:43.170Z,971.5
2018-03-15T00:17:45.583Z,971.4
2018-03-15T00:18:48.027Z,971.5
2018-03-15T00:19:50.541Z,971.5
2018-03-15T00:20:53.196Z,971.5
2018-03-15T00:21:55.695Z,971.5
2018-03-15T00:22:58.977Z,971.6
2018-03-15T00:24:01.514Z,971.5
2018-03-15T00:25:04.726Z,971.5
2018-03-15T00:26:07.324Z,971.4
2018-03-15T00:27:09.810Z,971.4
2018-03-15T00:28:12.791Z,971.4
2018-03-15T00:29:15.252Z,971.3
2018-03-15T00:30:17.789Z,971.4
2018-03-15T00:31:20.254Z,971.3
2018-03-15T00:32:22.798Z,971.3
2018-03-15T00:33:25.251Z,971.3
2018-03-15T00:34:27.750Z,971.2
2018-03-15T00:35:30.197Z,971.2
2018-03-15T00:36:32.715Z,971.3
2018-03-15T00:37:35.169Z,971.2
2018-03-15T00:38:37.690Z,971.3
2018-03-15T00:39:40.180Z,971.2
2018-03-15T00:40:42.678Z,971.2
2018-03-15T00:41:47.366Z,971.3
2018-03-15T00:42:49.845Z,971.2
2018-03-15T00:43:53.275Z,971.2
2018-03-15T00:44:55.707Z,971
2018-03-15T00:45:58.238Z,971.2
2018-03-15T00:47:03.341Z,971.1
2018-03-15T00:48:05.958Z,971.1
2018-03-15T00:49:08.432Z,971.1
2018-03-15T00:50:10.992Z,971.1
2018-03-15T00:51:13.818Z,971.2
2018-03-15T00:52:16.408Z,971.1
2018-03-15T00:53:19.001Z,971.1
2018-03-15T00:54:21.520Z,971
2018-03-15T00:55:23.986Z,971
2018-03-15T00:56:26.498Z,971
2018-03-15T00:57:29.097Z,971
2018-03-15T00:58:31.576Z,971
2018-03-15T00:59:34.182Z,971
2018-03-15T01:00:36.769Z,971
2018-03-15T01:01:41.343Z,971
2018-03-15T01:02:43.845Z,970.9
2018-03-15T01:03:46.328Z,970.9
2018-03-15T08:44:10.796Z,967.7
2018-03-15T08:45:14.010Z,967.7
2018-03-15T08:46:16.992Z,967.8
2018-03-15T08:47:27.245Z,967.7
2018-03-15T08:48:30.098Z,967.7
2018-03-15T08:49:33.086Z,967.7
2018-03-15T08:50:36.174Z,967.7
2018-03-15T08:51:38.880Z,967.8
2018-03-15T08:52:42.136Z,967.7
2018-03-15T08:53:45.058Z,967.7
2018-03-15T08:54:48.222Z,967.6
2018-03-15T08:55:51.194Z,967.7
2018-03-15T08:56:54.183Z,967.7
2018-03-15T08:57:57.286Z,967.6
2018-03-15T08:58:59.859Z,967.7
2018-03-15T09:00:04.094Z,967.6
2018-03-15T09:01:06.792Z,967.7
2018-03-15T09:02:10.429Z,967.8
2018-03-15T09:03:13.582Z,967.6
2018-03-15T09:04:16.489Z,967.7
2018-03-15T09:05:19.555Z,967.7
2018-03-15T09:06:22.424Z,967.7
2018-03-15T09:07:25.413Z,967.7
2018-03-15T09:08:28.414Z,967.7
2018-03-15T09:09:31.254Z,967.8
2018-03-15T09:10:34.174Z,967.6
2018-03-15T09:11:37.588Z,967.6
2018-03-15T09:12:40.896Z,967.6
2018-03-15T09:13:44.406Z,967.7
2018-03-15T09:14:47.489Z,967.6
2018-03-15T09:15:50.622Z,967.6
2018-03-15T09:16:53.844Z,967.6
2018-03-15T09:17:56.630Z,967.6
2018-03-15T09:18:59.526Z,967.7
2018-03-15T09:20:02.569Z,967.6
2018-03-15T09:21:05.651Z,967.6
2018-03-15T09:22:08.910Z,967.6
2018-03-15T09:23:12.431Z,967.5
2018-03-15T09:24:20.995Z,967.4
2018-03-15T09:25:24.528Z,967.4
2018-03-15T09:26:29.362Z,967.5
2018-03-15T09:27:35.711Z,967.4
2018-03-15T09:28:38.506Z,967.4
2018-03-15T09:29:41.745Z,967.1
2018-03-15T09:30:44.977Z,967.3
2018-03-15T09:31:48.032Z,967.5
2018-03-15T09:32:51.778Z,967.4
2018-03-15T09:33:54.672Z,967.5
2018-03-15T09:34:57.859Z,967.4
2018-03-15T09:36:00.927Z,967.4
2018-03-15T09:37:04.242Z,967.6
2018-03-15T09:38:07.202Z,967.5
2018-03-15T09:39:10.677Z,967.4
2018-03-15T09:40:13.867Z,967.5
2018-03-15T09:41:17.103Z,967.6
2018-03-15T09:42:19.865Z,967.6
2018-03-15T09:43:23.369Z,967.5
2018-03-15T09:44:27.070Z,967.6
2018-03-15T09:45:30.098Z,967.6
2018-03-15T09:46:33.367Z,967.6
2018-03-15T09:47:37.311Z,967.7
2018-03-15T09:48:40.498Z,967.5
2018-03-15T09:49:43.131Z,967.6
2018-03-15T09:50:47.152Z,967.5
2018-03-15T09:51:50.178Z,967.5
2018-03-15T09:52:58.190Z,967.5
2018-03-15T09:54:01.082Z,967.5
2018-03-15T09:55:04.037Z,967.5
2018-03-15T09:56:07.231Z,967.4
2018-03-15T09:57:10.302Z,967.3
2018-03-15T09:58:13.022Z,967.5
2018-03-15T09:59:16.240Z,967.6
2018-03-15T10:00:18.912Z,967.5
2018-03-15T10:01:22.318Z,967.5
2018-03-15T10:02:26.492Z,967.5
2018-03-15T10:03:29.321Z,967.4
2018-03-15T10:04:32.222Z,967.4
2018-03-15T10:05:35.665Z,967.5
2018-03-15T10:06:38.685Z,967.4
2018-03-15T10:07:41.841Z,967.5
2018-03-15T10:08:45.392Z,967.2
2018-03-15T10:09:48.584Z,967.4
2018-03-15T10:10:51.521Z,967.4
2018-03-15T10:11:54.500Z,967.5
2018-03-15T10:12:57.307Z,967.5
2018-03-15T10:14:00.309Z,967.6
2018-03-15T10:15:03.066Z,967.4
2018-03-15T10:16:06.212Z,967.5
2018-03-15T10:17:09.383Z,967.4
2018-03-15T10:18:13.004Z,967.5
2018-03-15T10:19:17.016Z,967.3
2018-03-15T10:20:19.994Z,967.3
2018-03-15T10:21:22.854Z,967.3
2018-03-15T10:22:25.764Z,967.4
2018-03-15T10:23:28.464Z,967.4
2018-03-15T10:24:34.346Z,967.4
2018-03-15T10:25:37.501Z,967.4
2018-03-15T10:26:40.589Z,967.2
2018-03-15T10:27:44.350Z,967.1
2018-03-15T10:28:48.274Z,967.2
2018-03-15T10:29:51.126Z,966.9
2018-03-15T10:30:54.397Z,967.2
2018-03-15T10:31:57.142Z,967
2018-03-15T10:33:00.252Z,967
2018-03-15T10:34:03.242Z,967
2018-03-15T10:35:06.175Z,967.1
2018-03-15T10:36:09.082Z,966.9
2018-03-15T10:37:12.690Z,967.2
2018-03-15T10:38:15.906Z,966.9
2018-03-15T10:39:19.291Z,966.7
2018-03-15T10:40:22.158Z,966.9
2018-03-15T10:41:25.072Z,966.6
2018-03-15T10:42:27.771Z,966.9
2018-03-15T10:43:31.018Z,967
2018-03-15T10:44:34.143Z,966.8
2018-03-15T10:45:37.424Z,966.9
2018-03-15T10:46:45.598Z,966.9
2018-03-15T10:47:48.673Z,966.9
2018-03-15T10:48:51.653Z,966.9
2018-03-15T10:49:55.048Z,966.9
2018-03-15T10:50:58.166Z,967
2018-03-15T10:52:01.752Z,966.9
2018-03-15T10:53:05.225Z,966.9
2018-03-15T10:54:08.063Z,966.9
2018-03-15T10:55:10.741Z,966.9
2018-03-15T10:56:14.031Z,966.8
2018-03-15T10:57:21.636Z,966.9
2018-03-15T10:58:24.557Z,966.9
2018-03-15T10:59:28.242Z,966.9
2018-03-15T11:00:31.197Z,966.7
2018-03-15T11:01:34.093Z,966.7
2018-03-15T11:02:38.686Z,966.7
2018-03-15T11:03:43.223Z,966.6
2018-03-15T11:04:47.278Z,966.5
2018-03-15T11:05:50.491Z,966.7
2018-03-15T11:06:53.350Z,966.5
2018-03-15T11:07:56.547Z,966.6
2018-03-15T11:08:59.266Z,966.5
2018-03-15T11:10:02.575Z,966.6
2018-03-15T11:11:05.394Z,966.5
2018-03-15T11:12:08.560Z,966.5
2018-03-15T11:13:11.617Z,966.4
2018-03-15T11:14:14.725Z,966.5
2018-03-15T11:15:17.983Z,966.5
2018-03-15T11:16:20.823Z,966.5
2018-03-15T11:17:24.286Z,966.3
2018-03-15T11:18:27.143Z,966.4
2018-03-15T11:19:31.948Z,966.1
2018-03-15T11:20:35.755Z,966.4
2018-03-15T11:21:38.528Z,966.4
2018-03-15T11:22:41.820Z,966.3
2018-03-15T11:23:44.922Z,966.3
2018-03-15T11:24:47.992Z,966.4
2018-03-15T11:25:51.677Z,966.1
2018-03-15T11:26:55.126Z,966.3
2018-03-15T11:27:58.644Z,966.3
2018-03-15T11:29:01.749Z,966.2
2018-03-15T11:30:05.119Z,966.2
2018-03-15T11:31:08.640Z,966.1
2018-03-15T11:32:12.011Z,966.1
2018-03-15T11:33:20.139Z,966.1
2018-03-15T11:35:44.783Z,966
2018-03-15T11:36:51.280Z,966
2018-03-15T11:37:54.316Z,966
2018-03-15T11:38:58.094Z,965.9
2018-03-15T11:40:10.702Z,965.7
2018-03-15T11:41:18.072Z,965.8
2018-03-15T11:42:22.364Z,965.5
2018-03-15T11:43:33.803Z,965.7
2018-03-15T11:44:38.752Z,965.6
2018-03-15T11:45:44.086Z,965.6
2018-03-15T11:46:47.968Z,965.7
2018-03-15T11:47:51.451Z,965.5
2018-03-15T11:48:56.175Z,965.6
2018-03-15T11:50:00.343Z,965.6
2018-03-15T11:51:04.143Z,965.6
2018-03-15T11:52:07.261Z,965.6
2018-03-15T11:53:10.944Z,965.5
2018-03-15T11:54:15.031Z,965.5
2018-03-15T11:55:19.885Z,965.5
2018-03-15T11:56:32.500Z,965.4
2018-03-15T11:57:35.574Z,965.4
2018-03-15T11:58:39.616Z,965.6
2018-03-15T11:59:43.103Z,965.4
2018-03-15T12:00:46.800Z,965.4
2018-03-15T12:03:04.977Z,965.5
2018-03-15T12:04:08.518Z,965.6
2018-03-15T12:05:12.119Z,965.5
2018-03-15T12:06:16.180Z,965.5
2018-03-15T12:07:20.356Z,965.5
2018-03-15T12:08:23.670Z,965.5
2018-03-15T12:09:27.156Z,965.4
2018-03-15T12:10:35.923Z,965.4
2018-03-15T12:11:39.501Z,965.3
2018-03-15T12:12:45.066Z,965.3
2018-03-15T12:13:51.749Z,965.4
2018-03-15T12:15:03.105Z,965.3
2018-03-15T12:16:08.652Z,965.5
2018-03-15T12:17:17.167Z,965.4
2018-03-15T12:18:20.703Z,965.2
2018-03-15T12:19:24.521Z,965.5
2018-03-15T12:20:28.321Z,965.3
2018-03-15T12:21:33.195Z,965.4
2018-03-15T12:22:37.755Z,965.3
2018-03-15T12:23:41.126Z,965.3
2018-03-15T12:24:49.264Z,965.2
2018-03-15T12:25:53.100Z,965.1
2018-03-15T12:26:57.796Z,965.1
2018-03-15T12:28:13.170Z,965.1
2018-03-15T12:29:24.096Z,965.2
2018-03-15T12:30:28.155Z,965.2
2018-03-15T12:31:32.671Z,965.2
2018-03-15T12:32:36.700Z,965.2
2018-03-15T12:33:39.318Z,965.2
2018-03-15T12:34:42.264Z,965.1
2018-03-15T12:35:45.590Z,965.1
2018-03-15T12:36:48.392Z,965.2
2018-03-15T12:37:51.113Z,965.2
2018-03-15T12:38:53.907Z,965.2
2018-03-15T12:39:56.753Z,965.2
2018-03-15T12:40:59.685Z,965.2
2018-03-15T12:42:02.525Z,965.1
2018-03-15T12:43:05.547Z,965.2
2018-03-15T12:44:08.702Z,965
2018-03-15T12:45:11.386Z,965.2
2018-03-15T12:47:23.119Z,965.3
2018-03-15T12:48:26.214Z,965.2
2018-03-15T12:49:28.805Z,965.2
2018-03-15T12:50:31.495Z,965.1
2018-03-15T12:51:34.178Z,965.1
2018-03-15T12:52:37.137Z,965.1
2018-03-15T12:53:39.739Z,965.1
2018-03-15T12:54:42.364Z,965
2018-03-15T12:55:45.266Z,965
2018-03-15T12:56:48.288Z,964.8
2018-03-15T12:57:51.247Z,964.9
2018-03-15T12:58:54.886Z,964.8
2018-03-15T12:59:57.797Z,964.3
2018-03-15T13:01:00.421Z,964.7
2018-03-15T13:02:03.907Z,964.7
2018-03-15T13:03:06.690Z,964.6
2018-03-15T13:04:09.275Z,964.5
2018-03-15T13:05:12.539Z,964.4
2018-03-15T13:06:15.397Z,964.3
2018-03-15T13:07:18.108Z,964.4
2018-03-15T13:08:21.193Z,964.3
2018-03-15T13:09:24.004Z,964.3
2018-03-15T13:10:26.855Z,964.3
2018-03-15T13:11:30.139Z,964.1
2018-03-15T13:12:32.811Z,964.2
2018-03-15T13:13:35.512Z,964.3
2018-03-15T13:14:38.218Z,964.2
2018-03-15T13:15:40.823Z,964.2
2018-03-15T13:16:43.529Z,964.2
2018-03-15T13:17:46.401Z,964.2
2018-03-15T13:18:49.563Z,964.1
2018-03-15T13:19:52.484Z,964.1
2018-03-15T13:20:55.551Z,964.2
2018-03-15T13:21:58.448Z,964
2018-03-15T13:23:02.388Z,964
2018-03-15T13:24:05.091Z,963.9
2018-03-15T13:25:07.899Z,964
2018-03-15T13:26:11.287Z,964
2018-03-15T13:27:14.947Z,964
2018-03-15T13:28:17.912Z,963.9
2018-03-15T13:29:21.458Z,963.9
2018-03-15T13:30:24.466Z,963.8
2018-03-15T13:31:28.367Z,964
2018-03-15T13:32:34.386Z,964
2018-03-15T13:33:38.848Z,964
2018-03-15T13:34:41.932Z,964
2018-03-15T13:35:47.842Z,964.1
2018-03-15T13:36:51.930Z,964
2018-03-15T13:37:54.792Z,963.8
2018-03-15T13:38:58.958Z,964
2018-03-15T13:40:01.779Z,964
2018-03-15T13:41:04.656Z,964
2018-03-15T13:42:08.194Z,964.1
2018-03-15T13:43:10.920Z,964.1
2018-03-15T13:44:13.743Z,964.1
2018-03-15T13:45:16.679Z,963.9
2018-03-15T13:46:19.466Z,964
2018-03-15T13:47:22.665Z,964
2018-03-15T13:48:25.547Z,964.2
2018-03-15T13:49:28.470Z,964.1
2018-03-15T13:50:31.856Z,964.2
2018-03-15T13:51:34.569Z,964.2
2018-03-15T13:52:37.344Z,964.1
2018-03-15T13:53:40.314Z,964.3
2018-03-15T13:54:43.349Z,964.2
2018-03-15T13:55:46.912Z,964.1
2018-03-15T13:56:49.608Z,964.1
2018-03-15T13:57:56.536Z,964.1
2018-03-15T13:58:59.082Z,963.9
2018-03-15T14:00:03.509Z,964.1
2018-03-15T14:01:06.152Z,964.2
2018-03-15T14:02:09.561Z,964.1
2018-03-15T14:03:12.110Z,964.1
2018-03-15T14:04:15.125Z,964.1
2018-03-15T14:05:18.129Z,964
2018-03-15T14:06:27.588Z,964
2018-03-15T14:07:31.678Z,964.1
2018-03-15T14:08:34.406Z,964.1
2018-03-15T14:09:37.287Z,964
2018-03-15T14:10:40.008Z,964
2018-03-15T14:11:44.364Z,964
2018-03-15T14:12:47.294Z,964
2018-03-15T14:13:50.308Z,964
2018-03-15T14:14:53.105Z,964
2018-03-15T14:15:55.974Z,963.9
2018-03-15T14:16:58.745Z,963.9
2018-03-15T14:18:01.586Z,963.9
2018-03-15T14:19:04.725Z,963.7
2018-03-15T14:20:07.988Z,963.8
2018-03-15T14:21:10.964Z,963.9
2018-03-15T14:22:14.703Z,963.9
2018-03-15T14:23:19.494Z,963.8
2018-03-15T14:24:22.363Z,963.8
2018-03-15T14:25:25.686Z,963.8
2018-03-15T14:26:28.479Z,963.9
2018-03-15T14:27:31.043Z,964
2018-03-15T14:28:33.738Z,963.9
2018-03-15T14:29:36.560Z,963.9
2018-03-15T14:30:39.634Z,963.9
2018-03-15T14:31:42.284Z,963.9
2018-03-15T14:32:45.267Z,963.9
2018-03-15T14:33:48.284Z,964
2018-03-15T14:34:51.088Z,964
2018-03-15T14:35:54.190Z,964
2018-03-15T14:36:56.938Z,964
2018-03-15T14:37:59.712Z,964
2018-03-15T14:39:02.458Z,964
2018-03-15T14:40:05.239Z,963.9
2018-03-15T14:41:08.117Z,963.9
2018-03-15T14:42:11.117Z,963.9
2018-03-15T14:43:14.703Z,963.9
2018-03-15T14:44:17.769Z,964
2018-03-15T14:45:21.880Z,963.9
2018-03-15T14:46:24.683Z,964
2018-03-15T14:47:27.582Z,964
2018-03-15T14:48:30.724Z,964.1
2018-03-15T14:49:34.004Z,964
2018-03-15T14:50:36.883Z,963.9
2018-03-15T14:51:39.456Z,964.1
2018-03-15T14:52:42.748Z,963.8
2018-03-15T14:53:45.701Z,964
2018-03-15T14:54:48.592Z,964.1
2018-03-15T14:55:51.685Z,964
2018-03-15T14:56:54.200Z,964
2018-03-15T14:57:57.456Z,964
2018-03-15T14:59:00.305Z,964
2018-03-15T15:00:03.044Z,964
2018-03-15T15:01:06.580Z,964
2018-03-15T15:02:09.316Z,963.9
2018-03-15T15:03:12.064Z,963.9
2018-03-15T15:04:14.743Z,964.1
2018-03-15T15:05:17.643Z,964.1
2018-03-15T15:06:20.430Z,963.9
2018-03-15T15:07:23.723Z,964
2018-03-15T15:08:26.667Z,964.1
2018-03-15T15:09:29.375Z,964.2
2018-03-15T15:10:32.258Z,964
2018-03-15T15:11:35.131Z,964
2018-03-15T15:12:37.872Z,964
2018-03-15T15:13:41.482Z,964
2018-03-15T15:14:44.478Z,963.9
2018-03-15T15:15:52.541Z,964.1
2018-03-15T15:16:55.390Z,964
2018-03-15T15:17:58.324Z,964
2018-03-15T15:19:01.406Z,964
2018-03-15T15:20:04.921Z,964
2018-03-15T15:21:07.716Z,964
2018-03-15T15:22:16.248Z,964.1
2018-03-15T15:23:19.407Z,964.1
2018-03-15T15:24:22.527Z,964.1
2018-03-15T15:25:25.407Z,964.1
2018-03-15T15:26:28.397Z,964.1
2018-03-15T15:27:31.130Z,964.1
2018-03-15T15:28:34.032Z,964.1
2018-03-15T15:29:37.352Z,964.1
2018-03-15T15:30:40.147Z,964
2018-03-15T15:31:42.903Z,964
2018-03-15T15:32:45.494Z,964
2018-03-15T15:33:48.136Z,963.9
2018-03-15T15:34:51.056Z,964
2018-03-15T15:35:54.308Z,964
2018-03-15T15:36:57.300Z,964
2018-03-15T15:38:01.311Z,964
2018-03-15T15:39:03.888Z,963.9
2018-03-15T15:40:06.499Z,963.9
2018-03-15T15:41:09.259Z,963.8
2018-03-15T15:42:12.085Z,963.7
2018-03-15T15:43:14.847Z,963.9
2018-03-15T15:44:18.547Z,963.8
2018-03-15T15:45:21.580Z,963.8
2018-03-15T15:46:24.530Z,963.8
2018-03-15T15:47:29.813Z,963.8
2018-03-15T15:48:37.889Z,963.8
2018-03-15T15:49:41.337Z,963.8
2018-03-15T15:50:44.020Z,963.7
2018-03-15T15:51:46.603Z,963.8
2018-03-15T15:52:49.338Z,963.9
2018-03-15T15:53:52.047Z,963.8
2018-03-15T15:54:54.832Z,963.8
2018-03-15T15:55:57.786Z,963.8
2018-03-15T15:57:00.538Z,963.8
2018-03-15T15:58:03.339Z,963.6
2018-03-15T15:59:08.065Z,963.8
2018-03-15T16:00:10.926Z,963.7
2018-03-15T16:01:13.764Z,963.7
2018-03-15T16:02:16.728Z,963.7
2018-03-15T16:03:19.664Z,963.5
2018-03-15T16:04:22.406Z,963.6
2018-03-15T16:05:25.898Z,963.7
2018-03-15T16:06:28.732Z,963.7
2018-03-15T16:07:31.612Z,963.7
2018-03-15T16:08:35.540Z,963.7
2018-03-15T16:09:38.340Z,963.7
2018-03-15T16:10:41.508Z,963.7
2018-03-15T16:11:44.850Z,963.7
2018-03-15T16:12:48.022Z,963.7
2018-03-15T16:13:50.759Z,963.7
2018-03-15T16:14:53.535Z,963.6
2018-03-15T16:15:56.598Z,963.8
2018-03-15T16:17:00.223Z,963.7
2018-03-15T16:18:03.750Z,963.7
2018-03-15T16:19:06.890Z,963.7
2018-03-15T16:20:09.976Z,963.6
2018-03-15T16:21:12.657Z,963.6
2018-03-15T16:22:15.469Z,963.6
2018-03-15T16:23:18.506Z,963.4
2018-03-15T16:24:21.226Z,963.6
2018-03-15T16:25:24.402Z,963.6
2018-03-15T16:26:27.486Z,963.2
2018-03-15T16:27:33.743Z,963.5
2018-03-15T16:28:36.259Z,963.5
2018-03-15T16:29:39.144Z,963.5
2018-03-15T16:30:42.104Z,963.5
2018-03-15T16:31:44.930Z,963.5
2018-03-15T16:32:47.910Z,963.5
2018-03-15T16:33:50.995Z,963.5
2018-03-15T16:34:54.012Z,963.4
2018-03-15T16:35:57.504Z,963.5
2018-03-15T16:37:00.547Z,963.5
2018-03-15T16:38:03.556Z,963.5
2018-03-15T16:39:06.325Z,963.5
2018-03-15T16:40:09.167Z,963.5
2018-03-15T16:41:11.871Z,963.5
2018-03-15T16:42:14.829Z,963.3
2018-03-15T16:43:17.631Z,963.5
2018-03-15T16:45:30.969Z,963.6
2018-03-15T16:46:33.927Z,963.6
2018-03-15T16:47:36.761Z,963.5
2018-03-15T16:48:39.483Z,963.6
2018-03-15T16:49:42.300Z,963.6
2018-03-15T16:50:44.957Z,963.5
2018-03-15T16:51:49.152Z,963.5
2018-03-15T16:52:52.511Z,963.2
2018-03-15T16:53:55.389Z,963.5
2018-03-15T16:54:58.400Z,963.5
2018-03-15T16:56:01.538Z,963.5
2018-03-15T16:57:06.240Z,963.5
2018-03-15T16:58:09.121Z,963.5
2018-03-15T16:59:12.156Z,963.5
2018-03-15T17:00:14.910Z,963.4
2018-03-15T17:01:17.963Z,963.6
2018-03-15T17:02:21.084Z,963.6
2018-03-15T17:03:23.746Z,963.6
2018-03-15T17:04:26.281Z,963.4
2018-03-15T17:05:29.199Z,963.6
2018-03-15T17:06:33.549Z,963.6
2018-03-15T17:07:36.176Z,963.6
2018-03-15T17:08:38.897Z,963.4
2018-03-15T17:09:41.526Z,963.6
2018-03-15T17:10:44.262Z,963.2
2018-03-15T17:11:47.161Z,963.2
2018-03-15T17:12:49.811Z,963.5
2018-03-15T17:13:52.479Z,963.6
2018-03-15T17:14:55.251Z,963.6
2018-03-15T17:15:58.267Z,963.6
2018-03-15T17:17:00.937Z,963.6
2018-03-15T17:18:08.642Z,963.6
2018-03-15T17:19:11.686Z,963.4
2018-03-15T17:20:14.255Z,963.5
2018-03-15T17:21:24.716Z,963.4
2018-03-15T17:22:27.388Z,963.6
2018-03-15T17:23:29.992Z,963.6
2018-03-15T17:24:33.700Z,963.6
2018-03-15T17:25:36.264Z,963.4
2018-03-15T17:26:38.801Z,963.6
2018-03-15T17:27:41.826Z,963.6
2018-03-15T17:28:44.485Z,963.6
2018-03-15T17:29:47.302Z,963.7
2018-03-15T17:30:50.102Z,963.6
2018-03-15T17:31:52.806Z,963.8
2018-03-15T17:32:55.441Z,963.7
2018-03-15T17:33:58.972Z,963.7
2018-03-15T17:35:02.249Z,963.7
2018-03-15T17:36:05.178Z,963.7
2018-03-15T17:37:07.957Z,963.7
2018-03-15T17:38:11.118Z,963.7
2018-03-15T17:39:13.675Z,963.7
2018-03-15T17:40:16.385Z,963.7
2018-03-15T17:41:19.027Z,963.7
2018-03-15T17:42:21.840Z,963.8
2018-03-15T17:43:24.650Z,963.7
2018-03-15T17:44:27.472Z,963.4
2018-03-15T17:45:30.300Z,963.7
2018-03-15T17:46:33.542Z,963.6
2018-03-15T17:47:36.109Z,963.7
2018-03-15T17:48:39.867Z,963.8
2018-03-15T17:49:43.409Z,963.8
2018-03-15T17:50:46.268Z,963.7
2018-03-15T17:51:49.049Z,963.7
2018-03-15T17:52:51.581Z,963.7
2018-03-15T17:53:54.457Z,963.7
2018-03-15T17:54:57.217Z,963.7
2018-03-15T17:55:59.954Z,963.7
2018-03-15T17:57:03.292Z,963.7
2018-03-15T17:58:11.124Z,963.7
2018-03-15T17:59:13.953Z,963.6
2018-03-15T18:00:16.633Z,963.7
2018-03-15T18:01:19.526Z,963.6
2018-03-15T18:02:22.284Z,963.7
2018-03-15T18:03:25.076Z,963.7
2018-03-15T18:04:27.928Z,963.7
2018-03-15T18:05:30.526Z,963.7
2018-03-15T18:06:33.200Z,963.7
2018-03-15T18:07:35.860Z,963.7
2018-03-15T18:08:43.852Z,963.7
2018-03-15T18:09:46.495Z,963.7
2018-03-15T18:10:49.248Z,963.7
2018-03-15T18:11:51.779Z,963.8
2018-03-15T18:12:54.449Z,963.6
2018-03-15T18:13:57.226Z,963.9
2018-03-15T18:14:59.926Z,963.7
2018-03-15T18:16:02.981Z,963.8
2018-03-15T18:17:05.520Z,963.8
2018-03-15T18:18:08.175Z,963.8
2018-03-15T18:19:10.860Z,963.8
2018-03-15T18:20:13.703Z,963.6
2018-03-15T18:21:16.282Z,963.7
2018-03-15T18:22:18.960Z,963.7
2018-03-15T18:23:21.694Z,963.6
2018-03-15T18:24:24.165Z,963.6
2018-03-15T18:25:26.792Z,963.4
2018-03-15T18:26:29.714Z,963.5
2018-03-15T18:27:32.542Z,963.4
2018-03-15T18:28:35.415Z,963.4
2018-03-15T18:29:38.354Z,963.4
2018-03-15T18:30:41.664Z,963.5
2018-03-15T18:31:44.186Z,963.5
2018-03-15T18:32:47.082Z,963.5
2018-03-15T18:33:49.801Z,963.4
2018-03-15T18:34:52.442Z,963.5
2018-03-15T18:35:55.104Z,963.5
2018-03-15T18:36:58.875Z,963.3
2018-03-15T18:38:01.649Z,963.5
2018-03-15T18:39:04.107Z,963.5
2018-03-15T18:40:06.723Z,963.5
2018-03-15T18:41:09.399Z,963.5
2018-03-15T18:42:13.689Z,963.5
2018-03-15T18:43:16.327Z,963.6
2018-03-15T18:44:18.868Z,963.5
2018-03-15T18:45:21.391Z,963.6
2018-03-15T18:46:23.959Z,963.6
2018-03-15T18:47:26.550Z,963.5
2018-03-15T18:48:29.146Z,963.6
2018-03-15T18:49:31.780Z,963.6
2018-03-15T18:50:34.381Z,963.6
2018-03-15T18:51:36.950Z,963.6
2018-03-15T18:52:39.604Z,963.5
2018-03-15T18:53:42.437Z,963.6
2018-03-15T18:54:45.612Z,963.8
2018-03-15T18:55:48.169Z,963.9
2018-03-15T18:56:50.857Z,963.8
2018-03-15T18:57:53.448Z,963.8
2018-03-15T18:58:56.134Z,963.7
2018-03-15T18:59:58.804Z,963.8
2018-03-15T19:01:01.503Z,963.7
2018-03-15T19:02:04.140Z,963.8
2018-03-15T19:03:06.857Z,963.7
2018-03-15T19:04:09.454Z,963.7
2018-03-15T19:05:12.322Z,963.7
2018-03-15T19:06:16.712Z,963.7
2018-03-15T19:07:19.336Z,963.8
2018-03-15T19:08:21.954Z,963.8
2018-03-15T19:09:24.469Z,963.9
2018-03-15T19:10:27.040Z,964
2018-03-15T19:11:29.714Z,964
2018-03-15T19:12:33.889Z,964
2018-03-15T19:13:36.527Z,963.9
2018-03-15T19:14:39.140Z,964
2018-03-15T19:15:41.603Z,964.1
2018-03-15T19:16:44.258Z,964.1
2018-03-15T19:17:46.744Z,964.1
2018-03-15T19:18:49.245Z,964.2
2018-03-15T19:19:51.768Z,964.2
2018-03-15T19:20:54.249Z,964.2
2018-03-15T19:21:56.758Z,964.2
2018-03-15T19:22:59.314Z,964.3
2018-03-15T19:24:01.932Z,964.4
2018-03-15T19:25:04.544Z,964.3
2018-03-15T19:26:07.016Z,964.4
2018-03-15T19:27:09.861Z,964.3
2018-03-15T19:28:13.317Z,964.4
2018-03-15T19:29:15.869Z,964.3
2018-03-15T19:30:18.442Z,964.4
2018-03-15T19:31:23.029Z,964.4
2018-03-15T19:32:25.547Z,964.2
2018-03-15T19:33:28.275Z,964.4
2018-03-15T19:34:30.905Z,964.4
2018-03-15T19:35:33.424Z,964.4
2018-03-15T19:36:36.114Z,964.6
2018-03-15T19:37:38.635Z,964.5
2018-03-15T19:38:41.847Z,964.5
2018-03-15T19:39:44.374Z,964.5
2018-03-15T19:40:46.902Z,964.4
2018-03-15T19:41:49.399Z,964.4
2018-03-15T19:42:51.968Z,964.4
2018-03-15T19:43:54.441Z,964.4
2018-03-15T19:44:57.053Z,964.4
2018-03-15T19:45:59.645Z,964.4
2018-03-15T19:47:02.217Z,964.4
2018-03-15T19:48:04.847Z,964.4
2018-03-15T19:49:08.655Z,964.4
2018-03-15T19:50:11.618Z,964.4
2018-03-15T19:51:14.196Z,964.4
2018-03-15T19:52:16.649Z,964.3
2018-03-15T19:53:19.145Z,964.4
2018-03-15T19:54:21.606Z,964.4
2018-03-15T19:55:24.275Z,964.3
2018-03-15T19:56:26.824Z,964.4
2018-03-15T19:57:29.481Z,964.4
2018-03-15T19:58:32.248Z,964.3
2018-03-15T19:59:34.880Z,964.3
2018-03-15T20:00:37.450Z,964.3
2018-03-15T20:01:40.122Z,964.3
2018-03-15T20:02:42.696Z,964.3
2018-03-15T20:03:45.333Z,964.3
2018-03-15T20:04:47.878Z,964.3
2018-03-15T20:05:50.665Z,964.3
2018-03-15T20:06:53.156Z,964.2
2018-03-15T20:07:55.719Z,964.3
2018-03-15T20:08:58.246Z,964.2
2018-03-15T20:10:01.059Z,964.3
2018-03-15T20:11:03.835Z,964.2
2018-03-15T20:12:06.955Z,964.3
2018-03-15T20:13:09.516Z,964.2
2018-03-15T20:14:12.176Z,964.2
2018-03-15T20:15:14.571Z,964.2
2018-03-15T20:16:17.132Z,964.2
2018-03-15T20:17:19.703Z,964.2
2018-03-15T20:18:22.308Z,964.2
2018-03-15T20:19:24.875Z,964
2018-03-15T20:20:27.508Z,964.2
2018-03-15T20:21:30.186Z,964.1
2018-03-15T20:22:32.799Z,964.1
2018-03-15T20:23:35.540Z,964.2
2018-03-15T20:24:38.081Z,964.2
2018-03-15T20:25:40.699Z,964.3
2018-03-15T20:26:43.263Z,964.2
2018-03-15T20:27:45.787Z,964.2
2018-03-15T20:28:48.284Z,963.9
2018-03-15T20:29:50.942Z,964.2
2018-03-15T20:30:53.401Z,964.2
2018-03-15T20:31:56.096Z,964.2
2018-03-15T20:32:58.728Z,964.1
2018-03-15T20:34:01.379Z,964.1
2018-03-15T20:35:05.091Z,964.1
2018-03-15T20:36:07.825Z,964.1
2018-03-15T20:37:10.459Z,964.1
2018-03-15T20:38:12.973Z,964.2
2018-03-15T20:39:15.418Z,964.2
2018-03-15T20:40:18.031Z,964.2
2018-03-15T20:41:20.577Z,964.2
2018-03-15T20:42:23.162Z,964.2
2018-03-15T20:43:28.443Z,964.2
2018-03-15T20:44:33.327Z,964.2
2018-03-15T20:45:35.840Z,964.2
2018-03-15T20:46:38.341Z,964.2
2018-03-15T20:47:40.903Z,964.2
2018-03-15T20:48:43.502Z,964
2018-03-15T20:49:46.143Z,964.2
2018-03-15T20:50:48.721Z,964.2
2018-03-15T20:51:51.562Z,964.1
2018-03-15T20:52:54.156Z,964.1
2018-03-15T20:53:56.640Z,964.1
2018-03-15T20:54:59.183Z,964
2018-03-15T20:56:02.612Z,964.1
2018-03-15T20:57:05.253Z,964
2018-03-15T20:58:07.907Z,964.1
2018-03-15T20:59:10.460Z,964
2018-03-15T21:00:12.945Z,964
2018-03-15T21:01:15.688Z,964
2018-03-15T21:02:18.194Z,963.9
2018-03-15T21:03:20.833Z,963.9
2018-03-15T21:04:23.314Z,963.9
2018-03-15T21:05:25.911Z,963.9
2018-03-15T21:06:28.449Z,963.8
2018-03-15T21:07:31.163Z,963.8
2018-03-15T21:08:33.850Z,963.8
2018-03-15T21:09:36.379Z,963.9
2018-03-15T21:10:38.952Z,963.9
2018-03-15T21:11:42.293Z,963.8
2018-03-15T21:12:44.761Z,963.9
2018-03-15T21:13:47.277Z,963.9
2018-03-15T21:14:49.782Z,963.8
2018-03-15T21:15:52.263Z,963.6
2018-03-15T21:16:54.756Z,963.8
2018-03-15T21:17:57.226Z,963.7
2018-03-15T21:18:59.815Z,963.9
2018-03-15T21:20:02.367Z,963.8
2018-03-15T21:21:04.970Z,963.8
2018-03-15T21:22:07.549Z,963.8
2018-03-15T21:23:10.619Z,963.8
2018-03-15T21:24:13.208Z,963.8